| time (UTC) | temp C | wind direction | speed KPH | gust KPH | rain 1hr cm | rain 24hr cm | rain mn cm | humidity % | barometer mb |
| 20260506080852 | 15 | 113 | 1.6 | 6.4 | 0.00 | 0.00 | 0.00 | 71 | 1009.7 |
| 20260506080349 | 15 | 38 | 3.2 | 6.4 | 0.00 | 0.00 | 0.00 | 71 | 1009.8 |
| 20260506073333 | 15 | 358 | 1.6 | 3.2 | 0.00 | 0.00 | 0.00 | 72 | 1009.9 |
| 20260506072830 | 15 | 90 | 1.6 | 6.4 | 0.00 | 0.00 | 0.00 | 73 | 1009.9 |
| 20260506072327 | 15 | 308 | 3.2 | 6.4 | 0.00 | 0.00 | 0.00 | 73 | 1009.8 |
| 20260506071825 | 15 | 53 | 6.4 | 11.3 | 0.00 | 0.00 | 0.00 | 72 | 1009.9 |
| 20260506071323 | 15 | 41 | 6.4 | 12.9 | 0.00 | 0.00 | 0.00 | 72 | 1009.9 |
| 20260506070820 | 15 | 320 | 4.8 | 11.3 | 0.00 | 0.00 | 0.00 | 72 | 1009.8 |
| 20260506070317 | 15 | 91 | 3.2 | 6.4 | 0.00 | 0.00 | 0.00 | 73 | 1009.8 |
| 20260506062254 | 16 | 56 | 8.0 | 11.3 | 0.00 | 0.00 | 0.00 | 74 | 1009.8 |
| 20260506061750 | 16 | 346 | 4.8 | 11.3 | 0.00 | 0.00 | 0.00 | 74 | 1009.9 |
| 20260506061247 | 16 | 354 | 4.8 | 9.7 | 0.00 | 0.00 | 0.00 | 74 | 1009.6 |
| 20260506060745 | 16 | 29 | 11.3 | 14.5 | 0.00 | 0.00 | 0.00 | 74 | 1009.8 |
| 20260506060243 | 16 | 24 | 4.8 | 14.5 | 0.00 | 0.00 | 0.00 | 74 | 1009.7 |
| 20260506051214 | 17 | 93 | 8.0 | 17.7 | 0.00 | 0.00 | 0.00 | 74 | 1009.7 |
| 20260506050713 | 17 | 276 | 4.8 | 6.4 | 0.00 | 0.00 | 0.00 | 74 | 1009.6 |
| 20260506050209 | 17 | 281 | 3.2 | 9.7 | 0.00 | 0.00 | 0.00 | 74 | 1009.5 |
| 20260506044700 | 17 | 14 | 8.0 | 14.5 | 0.00 | 0.00 | 0.00 | 74 | 1009.4 |
| 20260506044157 | 17 | 353 | 4.8 | 12.9 | 0.00 | 0.00 | 0.00 | 74 | 1009.8 |
| 20260506043654 | 18 | 99 | 3.2 | 12.9 | 0.00 | 0.00 | 0.00 | 73 | 1009.5 |
| 20260506043152 | 18 | 19 | 3.2 | 9.7 | 0.00 | 0.00 | 0.00 | 74 | 1009.3 |
| 20260506042651 | 18 | 75 | 8.0 | 12.9 | 0.00 | 0.00 | 0.00 | 73 | 1009.5 |
| 20260506042149 | 18 | 41 | 12.9 | 16.1 | 0.00 | 0.00 | 0.00 | 73 | 1009.2 |
| 20260506041652 | 18 | 344 | 3.2 | 11.3 | 0.00 | 0.00 | 0.00 | 73 | 1009.1 |
| 20260506041143 | 18 | 10 | 6.4 | 9.7 | 0.00 | 0.00 | 0.00 | 73 | 1008.8 |
| 20260506040641 | 18 | 73 | 6.4 | 12.9 | 0.00 | 0.00 | 0.00 | 72 | 1008.9 |
| 20260506040138 | 19 | 17 | 3.2 | 9.7 | 0.00 | 0.00 | 0.00 | 72 | 1008.9 |
| 20260506035635 | 19 | 317 | 8.0 | 11.3 | 0.00 | 0.00 | 0.00 | 72 | 1009.1 |
| 20260506035131 | 20 | 40 | 6.4 | 9.7 | 0.00 | 0.00 | 0.00 | 72 | 1008.8 |
| 20260506034629 | 20 | 350 | 3.2 | 4.8 | 0.00 | 0.00 | 0.00 | 72 | 1008.7 |
| 20260506034125 | 20 | 60 | 8.0 | 14.5 | 0.00 | 0.00 | 0.00 | 71 | 1008.7 |
| 20260506033623 | 20 | 14 | 3.2 | 9.7 | 0.00 | 0.00 | 0.00 | 71 | 1008.6 |
| 20260506033120 | 20 | 356 | 6.4 | 12.9 | 0.00 | 0.00 | 0.00 | 71 | 1008.5 |
| 20260506032617 | 20 | 14 | 4.8 | 16.1 | 0.00 | 0.00 | 0.00 | 71 | 1008.7 |
| 20260506032114 | 21 | 73 | 3.2 | 11.3 | 0.00 | 0.00 | 0.00 | 70 | 1007.9 |
| 20260506031611 | 21 | 15 | 8.0 | 11.3 | 0.00 | 0.00 | 0.00 | 70 | 1008.2 |
| 20260506031108 | 21 | 12 | 12.9 | 14.5 | 0.00 | 0.00 | 0.00 | 70 | 1008.2 |
| 20260506030606 | 21 | 356 | 3.2 | 14.5 | 0.00 | 0.00 | 0.00 | 70 | 1008.1 |
| 20260506030103 | 21 | 103 | 1.6 | 11.3 | 0.00 | 0.00 | 0.00 | 70 | 1008.1 |
| 20260506025600 | 21 | 28 | 8.0 | 11.3 | 0.00 | 0.00 | 0.00 | 69 | 1008.0 |
| 20260506025056 | 21 | 64 | 6.4 | 14.5 | 0.00 | 0.00 | 0.00 | 70 | 1007.6 |
| 20260506024553 | 22 | 327 | 4.8 | 16.1 | 0.00 | 0.00 | 0.00 | 70 | 1007.7 |
| 20260506024050 | 22 | 325 | 6.4 | 20.9 | 0.00 | 0.00 | 0.00 | 69 | 1007.2 |
| 20260506023545 | 22 | 3 | 6.4 | 17.7 | 0.00 | 0.00 | 0.00 | 68 | 1007.2 |
| 20260506023043 | 23 | 12 | 4.8 | 16.1 | 0.00 | 0.00 | 0.00 | 67 | 1007.0 |
| 20260506022541 | 23 | 22 | 6.4 | 9.7 | 0.00 | 0.00 | 0.00 | 67 | 1006.9 |
| 20260506022038 | 23 | 306 | 3.2 | 6.4 | 0.00 | 0.00 | 0.00 | 66 | 1006.8 |
| 20260506021535 | 23 | 48 | 3.2 | 6.4 | 0.00 | 0.00 | 0.00 | 66 | 1006.6 |
| 20260506021033 | 23 | 3 | 4.8 | 9.7 | 0.00 | 0.00 | 0.00 | 66 | 1006.4 |
| 20260506020530 | 23 | 73 | 1.6 | 12.9 | 0.00 | 0.00 | 0.00 | 65 | 1006.3 |
| 20260506020027 | 23 | 58 | 1.6 | 9.7 | 0.00 | 0.00 | 0.00 | 65 | 1006.7 |
| 20260506015525 | 23 | 276 | 1.6 | 4.8 | 0.00 | 0.00 | 0.00 | 65 | 1006.2 |
| 20260506015021 | 23 | 354 | 6.4 | 9.7 | 0.00 | 0.00 | 0.00 | 65 | 1006.6 |
| 20260506014519 | 23 | 2 | 1.6 | 11.3 | 0.00 | 0.00 | 0.00 | 65 | 1006.4 |
| 20260506014015 | 23 | 11 | 3.2 | 12.9 | 0.00 | 0.00 | 0.00 | 64 | 1006.0 |
| 20260506013513 | 23 | 30 | 4.8 | 6.4 | 0.00 | 0.00 | 0.00 | 64 | 1006.0 |
| 20260506013009 | 23 | 17 | 3.2 | 4.8 | 0.00 | 0.00 | 0.00 | 64 | 1006.0 |
| 20260506012505 | 23 | 292 | 4.8 | 6.4 | 0.00 | 0.00 | 0.00 | 64 | 1006.2 |
| 20260506012003 | 23 | 15 | 6.4 | 14.5 | 0.00 | 0.00 | 0.00 | 64 | 1006.3 |
| 20260506011500 | 24 | 308 | 1.6 | 9.7 | 0.00 | 0.00 | 0.00 | 64 | 1005.9 |
| 20260506010956 | 24 | 23 | 6.4 | 12.9 | 0.00 | 0.00 | 0.00 | 64 | 1005.7 |
| 20260506010456 | 25 | 26 | 6.4 | 12.9 | 0.00 | 0.00 | 0.00 | 63 | 1005.7 |
| 20260506005951 | 25 | 355 | 6.4 | 9.7 | 0.00 | 0.00 | 0.00 | 63 | 1005.4 |
| 20260506005449 | 25 | 15 | 3.2 | 4.8 | 0.00 | 0.00 | 0.00 | 62 | 1005.6 |
| 20260506004944 | 25 | 355 | 6.4 | 11.3 | 0.00 | 0.00 | 0.00 | 61 | 1005.7 |
| 20260506004442 | 25 | 30 | 3.2 | 6.4 | 0.00 | 0.00 | 0.00 | 61 | 1005.7 |
| 20260506003938 | 26 | 244 | 1.6 | 4.8 | 0.00 | 0.00 | 0.00 | 61 | 1005.2 |
| 20260506003435 | 26 | 35 | 3.2 | 6.4 | 0.00 | 0.00 | 0.00 | 60 | 1005.1 |
| 20260506002931 | 26 | 14 | 4.8 | 9.7 | 0.00 | 0.00 | 0.00 | 59 | 1005.1 |
| 20260506002427 | 27 | 349 | 1.6 | 6.4 | 0.00 | 0.00 | 0.00 | 58 | 1005.3 |
| 20260506001923 | 27 | 235 | 1.6 | 9.7 | 0.00 | 0.00 | 0.00 | 58 | 1005.4 |
| 20260506001420 | 27 | 7 | 4.8 | 6.4 | 0.00 | 0.00 | 0.00 | 57 | 1005.3 |
| 20260506000917 | 27 | 339 | 8.0 | 9.7 | 0.00 | 0.00 | 0.00 | 55 | 1005.1 |
| 20260506000416 | 28 | 22 | 3.2 | 4.8 | 0.00 | 0.00 | 0.00 | 55 | 1004.8 |
| 20260505235911 | 28 | 14 | 4.8 | 9.7 | 0.00 | 0.00 | 0.00 | 53 | 1004.5 |
| 20260505235410 | 29 | 34 | 4.8 | 9.7 | 0.00 | 0.00 | 0.00 | 48 | 1004.4 |
| 20260505234906 | 29 | 16 | 3.2 | 6.4 | 0.00 | 0.00 | 0.00 | 47 | 1004.5 |
| 20260505234404 | 29 | 109 | 1.6 | 11.3 | 0.00 | 0.00 | 0.00 | 48 | 1004.4 |
| 20260505233900 | 29 | 349 | 3.2 | 4.8 | 0.00 | 0.00 | 0.00 | 64 | 1004.4 |
| 20260505233358 | 30 | 16 | 3.2 | 4.8 | 0.00 | 0.00 | 0.00 | 64 | 1004.3 |
| 20260505232855 | 30 | 220 | 0.0 | 3.2 | 0.00 | 0.00 | 0.00 | 63 | 1004.2 |
| 20260505232353 | 30 | 170 | 1.6 | 6.4 | 0.00 | 0.00 | 0.00 | 63 | 1003.9 |
| 20260505231849 | 30 | 221 | 3.2 | 6.4 | 0.00 | 0.00 | 0.00 | 62 | 1004.1 |
| 20260505231347 | 30 | 145 | 4.8 | 11.3 | 0.00 | 0.00 | 0.00 | 62 | 1004.0 |
| 20260505230845 | 30 | 214 | 3.2 | 14.5 | 0.00 | 0.00 | 0.00 | 62 | 1003.7 |
| 20260505230342 | 30 | 154 | 1.6 | 6.4 | 0.00 | 0.00 | 0.00 | 62 | 1003.8 |
| 20260505225839 | 30 | 192 | 1.6 | 11.3 | 0.00 | 0.00 | 0.00 | 61 | 1003.8 |
| 20260505225336 | 30 | 135 | 1.6 | 9.7 | 0.00 | 0.00 | 0.00 | 62 | 1003.8 |
| 20260505224831 | 30 | 201 | 4.8 | 4.8 | 0.00 | 0.00 | 0.00 | 62 | 1003.7 |
| 20260505224329 | 31 | 146 | 4.8 | 6.4 | 0.00 | 0.00 | 0.00 | 58 | 1003.6 |
| 20260505223826 | 31 | 184 | 4.8 | 9.7 | 0.00 | 0.00 | 0.00 | 57 | 1003.6 |
| 20260505223323 | 31 | 163 | 4.8 | 6.4 | 0.00 | 0.00 | 0.00 | 56 | 1003.6 |
| 20260505222818 | 32 | 166 | 3.2 | 11.3 | 0.00 | 0.00 | 0.00 | 54 | 1003.6 |
| 20260505222315 | 32 | 245 | 4.8 | 6.4 | 0.00 | 0.00 | 0.00 | 48 | 1003.3 |
| 20260505221812 | 32 | 258 | 3.2 | 11.3 | 0.00 | 0.00 | 0.00 | 49 | 1003.5 |
| 20260505221309 | 32 | 270 | 1.6 | 6.4 | 0.00 | 0.00 | 0.00 | 48 | 1003.6 |
| 20260505220806 | 32 | 212 | 3.2 | 6.4 | 0.00 | 0.00 | 0.00 | 47 | 1003.6 |
| 20260505220303 | 32 | 198 | 4.8 | 12.9 | 0.00 | 0.00 | 0.00 | 48 | 1003.7 |
| 20260505215801 | 33 | 162 | 4.8 | 14.5 | 0.00 | 0.00 | 0.00 | 47 | 1003.7 |
| 20260505215258 | 32 | 237 | 6.4 | 12.9 | 0.00 | 0.00 | 0.00 | 47 | 1003.7 |
| 20260505214756 | 32 | 271 | 6.4 | 12.9 | 0.00 | 0.00 | 0.00 | 46 | 1003.5 |
| 20260505214253 | 33 | 232 | 6.4 | 11.3 | 0.00 | 0.00 | 0.00 | 45 | 1003.7 |
| 20260505213750 | 32 | 250 | 4.8 | 11.3 | 0.00 | 0.00 | 0.00 | 46 | 1003.7 |
| 20260505213248 | 32 | 215 | 4.8 | 9.7 | 0.00 | 0.00 | 0.00 | 48 | 1003.9 |
| 20260505212743 | 32 | 258 | 8.0 | 16.1 | 0.00 | 0.00 | 0.00 | 48 | 1003.9 |
| 20260505212241 | 32 | 262 | 6.4 | 11.3 | 0.00 | 0.00 | 0.00 | 48 | 1004.0 |
| 20260505211738 | 32 | 262 | 4.8 | 17.7 | 0.00 | 0.00 | 0.00 | 48 | 1003.9 |
| 20260505211235 | 32 | 260 | 4.8 | 14.5 | 0.00 | 0.00 | 0.00 | 47 | 1004.1 |
| 20260505210731 | 32 | 255 | 11.3 | 14.5 | 0.00 | 0.00 | 0.00 | 48 | 1003.9 |
| 20260505210228 | 32 | 216 | 6.4 | 14.5 | 0.00 | 0.00 | 0.00 | 48 | 1004.2 |
| 20260505205726 | 32 | 114 | 8.0 | 14.5 | 0.00 | 0.00 | 0.00 | 48 | 1004.2 |
| 20260505205224 | 32 | 213 | 3.2 | 3.2 | 0.00 | 0.00 | 0.00 | 52 | 1004.1 |
| 20260505204720 | 32 | 233 | 3.2 | 9.7 | 0.00 | 0.00 | 0.00 | 51 | 1004.2 |
| 20260505204218 | 31 | 260 | 4.8 | 11.3 | 0.00 | 0.00 | 0.00 | 54 | 1004.4 |
| 20260505203715 | 31 | 186 | 4.8 | 9.7 | 0.00 | 0.00 | 0.00 | 55 | 1004.4 |
| 20260505203212 | 31 | 239 | 6.4 | 9.7 | 0.00 | 0.00 | 0.00 | 54 | 1004.5 |
| 20260505202708 | 31 | 199 | 4.8 | 12.9 | 0.00 | 0.00 | 0.00 | 54 | 1004.5 |
| 20260505202204 | 31 | 205 | 6.4 | 9.7 | 0.00 | 0.00 | 0.00 | 55 | 1004.6 |
| 20260505201700 | 31 | 179 | 8.0 | 22.5 | 0.00 | 0.00 | 0.00 | 53 | 1004.5 |
| 20260505201158 | 31 | 177 | 3.2 | 9.7 | 0.00 | 0.00 | 0.00 | 55 | 1004.5 |
| 20260505200656 | 31 | 226 | 6.4 | 12.9 | 0.00 | 0.00 | 0.00 | 56 | 1004.6 |
| 20260505200153 | 31 | 202 | 9.7 | 14.5 | 0.00 | 0.00 | 0.00 | 54 | 1004.6 |
| 20260505195648 | 31 | 239 | 3.2 | 11.3 | 0.00 | 0.00 | 0.00 | 58 | 1004.7 |
| 20260505195146 | 31 | 168 | 3.2 | 16.1 | 0.00 | 0.00 | 0.00 | 58 | 1004.6 |
| 20260505194643 | 30 | 225 | 8.0 | 12.9 | 0.00 | 0.00 | 0.00 | 58 | 1004.5 |
| 20260505194139 | 30 | 321 | 3.2 | 14.5 | 0.00 | 0.00 | 0.00 | 60 | 1004.8 |
| 20260505193636 | 30 | 215 | 6.4 | 12.9 | 0.00 | 0.00 | 0.00 | 59 | 1004.6 |
| 20260505193133 | 30 | 304 | 4.8 | 9.7 | 0.00 | 0.00 | 0.00 | 59 | 1004.6 |
| 20260505192632 | 30 | 210 | 9.7 | 20.9 | 0.00 | 0.00 | 0.00 | 59 | 1004.7 |
| 20260505192129 | 30 | 226 | 6.4 | 16.1 | 0.00 | 0.00 | 0.00 | 60 | 1004.7 |
| 20260505191627 | 30 | 238 | 4.8 | 16.1 | 0.00 | 0.00 | 0.00 | 61 | 1004.8 |
| 20260505191125 | 29 | 227 | 4.8 | 11.3 | 0.00 | 0.00 | 0.00 | 61 | 1004.8 |
| 20260505190620 | 28 | 158 | 6.4 | 11.3 | 0.00 | 0.00 | 0.00 | 62 | 1004.8 |
| 20260505190115 | 28 | 143 | 6.4 | 20.9 | 0.00 | 0.00 | 0.00 | 62 | 1005.0 |
| 20260505185613 | 29 | 260 | 9.7 | 12.9 | 0.00 | 0.00 | 0.00 | 61 | 1004.9 |
| 20260505185109 | 29 | 124 | 6.4 | 17.7 | 0.00 | 0.00 | 0.00 | 59 | 1005.1 |
| 20260505184605 | 28 | 149 | 3.2 | 9.7 | 0.00 | 0.00 | 0.00 | 64 | 1005.1 |
| 20260505184102 | 28 | 137 | 6.4 | 12.9 | 0.00 | 0.00 | 0.00 | 63 | 1004.9 |
| 20260505183559 | 28 | 340 | 3.2 | 16.1 | 0.00 | 0.00 | 0.00 | 62 | 1005.0 |
| 20260505183057 | 28 | 343 | 6.4 | 9.7 | 0.00 | 0.00 | 0.00 | 61 | 1004.8 |
| 20260505182553 | 28 | 91 | 8.0 | 12.9 | 0.00 | 0.00 | 0.00 | 62 | 1005.0 |
| 20260505182050 | 28 | 257 | 11.3 | 16.1 | 0.00 | 0.00 | 0.00 | 62 | 1004.9 |
| 20260505181546 | 28 | 228 | 8.0 | 12.9 | 0.00 | 0.00 | 0.00 | 62 | 1005.0 |
| 20260505181044 | 28 | 201 | 8.0 | 20.9 | 0.00 | 0.00 | 0.00 | 62 | 1005.0 |
| 20260505180539 | 28 | 158 | 14.5 | 22.5 | 0.00 | 0.00 | 0.00 | 61 | 1005.1 |
| 20260505180038 | 28 | 184 | 6.4 | 24.1 | 0.00 | 0.00 | 0.00 | 63 | 1005.1 |
| 20260505175537 | 28 | 169 | 4.8 | 20.9 | 0.00 | 0.00 | 0.00 | 62 | 1005.2 |
| 20260505175035 | 28 | 150 | 11.3 | 17.7 | 0.00 | 0.00 | 0.00 | 62 | 1005.1 |
| 20260505174532 | 28 | 98 | 11.3 | 16.1 | 0.00 | 0.00 | 0.00 | 62 | 1005.1 |
| 20260505174027 | 28 | 184 | 9.7 | 14.5 | 0.00 | 0.00 | 0.00 | 63 | 1005.3 |
| 20260505173524 | 27 | 247 | 6.4 | 16.1 | 0.00 | 0.00 | 0.00 | 63 | 1005.3 |
| 20260505173021 | 27 | 224 | 3.2 | 9.7 | 0.00 | 0.00 | 0.00 | 65 | 1005.1 |
| 20260505172519 | 27 | 242 | 6.4 | 20.9 | 0.00 | 0.00 | 0.00 | 63 | 1005.2 |
| 20260505172015 | 27 | 258 | 6.4 | 12.9 | 0.00 | 0.00 | 0.00 | 65 | 1005.2 |
| 20260505171510 | 27 | 193 | 3.2 | 16.1 | 0.00 | 0.00 | 0.00 | 65 | 1005.4 |
| 20260505171008 | 27 | 241 | 4.8 | 20.9 | 0.00 | 0.00 | 0.00 | 66 | 1005.3 |
| 20260505170504 | 27 | 267 | 3.2 | 17.7 | 0.00 | 0.00 | 0.00 | 65 | 1005.4 |
| 20260505170000 | 27 | 209 | 6.4 | 20.9 | 0.00 | 0.00 | 0.00 | 65 | 1005.4 |
| 20260505165456 | 27 | 202 | 12.9 | 17.7 | 0.00 | 0.00 | 0.00 | 64 | 1005.0 |
| 20260505164951 | 27 | 187 | 4.8 | 11.3 | 0.00 | 0.00 | 0.00 | 66 | 1005.2 |
| 20260505164448 | 26 | 215 | 9.7 | 20.9 | 0.00 | 0.00 | 0.00 | 66 | 1005.2 |
| 20260505163946 | 26 | 195 | 3.2 | 14.5 | 0.00 | 0.00 | 0.00 | 66 | 1005.1 |
| 20260505163444 | 26 | 237 | 9.7 | 22.5 | 0.00 | 0.00 | 0.00 | 65 | 1005.2 |
| 20260505162944 | 26 | 348 | 11.3 | 30.6 | 0.00 | 0.00 | 0.00 | 66 | 1005.1 |
| 20260505162439 | 26 | 245 | 9.7 | 20.9 | 0.00 | 0.00 | 0.00 | 66 | 1005.1 |
| 20260505161936 | 26 | 200 | 4.8 | 24.1 | 0.00 | 0.00 | 0.00 | 67 | 1005.1 |
| 20260505161432 | 26 | 304 | 11.3 | 22.5 | 0.00 | 0.00 | 0.00 | 65 | 1004.9 |
| 20260505160930 | 27 | 137 | 14.5 | 24.1 | 0.00 | 0.00 | 0.00 | 65 | 1004.9 |
| 20260505160428 | 26 | 240 | 3.2 | 9.7 | 0.00 | 0.00 | 0.00 | 69 | 1004.8 |
| 20260505152904 | 25 | 202 | 4.8 | 11.3 | 0.00 | 0.00 | 0.00 | 72 | 1005.1 |
| 20260505152401 | 25 | 210 | 9.7 | 24.1 | 0.00 | 0.00 | 0.00 | 72 | 1004.9 |
| 20260505151901 | 25 | 142 | 3.2 | 24.1 | 0.00 | 0.00 | 0.00 | 73 | 1005.1 |
| 20260505151358 | 25 | 198 | 6.4 | 14.5 | 0.00 | 0.00 | 0.00 | 73 | 1005.1 |
| 20260505150855 | 25 | 253 | 8.0 | 17.7 | 0.00 | 0.00 | 0.00 | 74 | 1005.0 |
| 20260505150353 | 25 | 204 | 17.7 | 24.1 | 0.00 | 0.00 | 0.00 | 74 | 1005.1 |
| 20260505140322 | 22 | 188 | 6.4 | 20.9 | 0.00 | 0.00 | 0.00 | 79 | 1004.9 |
| 20260505130246 | 22 | 194 | 3.2 | 14.5 | 0.00 | 0.00 | 0.00 | 80 | 1004.9 |
| 20260505124736 | 22 | 165 | 1.6 | 11.3 | 0.00 | 0.00 | 0.00 | 81 | 1004.7 |
| 20260505124233 | 22 | 216 | 9.7 | 14.5 | 0.00 | 0.00 | 0.00 | 81 | 1004.8 |
| 20260505123729 | 22 | 172 | 4.8 | 11.3 | 0.00 | 0.00 | 0.00 | 81 | 1004.4 |
| 20260505123226 | 22 | 213 | 9.7 | 16.1 | 0.00 | 0.00 | 0.00 | 81 | 1004.3 |
| 20260505122722 | 22 | 149 | 14.5 | 20.9 | 0.00 | 0.00 | 0.00 | 81 | 1004.4 |
| 20260505122220 | 22 | 153 | 8.0 | 12.9 | 0.00 | 0.00 | 0.00 | 81 | 1004.5 |
| 20260505121716 | 22 | 198 | 3.2 | 17.7 | 0.00 | 0.00 | 0.00 | 81 | 1004.7 |
| 20260505121213 | 22 | 207 | 8.0 | 17.7 | 0.00 | 0.00 | 0.00 | 81 | 1004.5 |
| 20260505120709 | 22 | 198 | 3.2 | 22.5 | 0.00 | 0.00 | 0.00 | 81 | 1004.5 |
| 20260505120205 | 22 | 193 | 6.4 | 17.7 | 0.00 | 0.00 | 0.00 | 81 | 1004.3 |
| 20260505115704 | 22 | 150 | 4.8 | 16.1 | 0.00 | 0.00 | 0.00 | 81 | 1004.3 |
| 20260505115203 | 22 | 305 | 4.8 | 9.7 | 0.00 | 0.00 | 0.00 | 81 | 1004.4 |
| 20260505114659 | 22 | 166 | 6.4 | 14.5 | 0.00 | 0.00 | 0.00 | 81 | 1004.3 |
| 20260505114155 | 22 | 161 | 9.7 | 17.7 | 0.00 | 0.00 | 0.00 | 81 | 1004.2 |
| 20260505113652 | 22 | 171 | 6.4 | 14.5 | 0.00 | 0.00 | 0.00 | 81 | 1004.1 |
| 20260505113149 | 22 | 231 | 14.5 | 20.9 | 0.00 | 0.00 | 0.00 | 81 | 1004.0 |
| 20260505112645 | 22 | 211 | 8.0 | 16.1 | 0.00 | 0.00 | 0.00 | 81 | 1004.0 |
| 20260505112143 | 21 | 228 | 9.7 | 12.9 | 0.00 | 0.00 | 0.00 | 81 | 1004.2 |
| 20260505111642 | 21 | 246 | 8.0 | 16.1 | 0.00 | 0.00 | 0.00 | 81 | 1004.0 |
| 20260505111138 | 21 | 159 | 6.4 | 11.3 | 0.00 | 0.00 | 0.00 | 81 | 1003.8 |
| 20260505110635 | 21 | 168 | 9.7 | 16.1 | 0.00 | 0.00 | 0.00 | 81 | 1004.1 |
| 20260505110132 | 21 | 205 | 6.4 | 12.9 | 0.00 | 0.00 | 0.00 | 81 | 1003.9 |
| 20260505102108 | 22 | 162 | 1.6 | 14.5 | 0.00 | 0.00 | 0.00 | 80 | 1004.3 |
| 20260505101606 | 22 | 208 | 3.2 | 6.4 | 0.00 | 0.00 | 0.00 | 80 | 1004.3 |
| 20260505101102 | 22 | 199 | 14.5 | 22.5 | 0.00 | 0.00 | 0.00 | 80 | 1004.1 |
| 20260505100559 | 22 | 317 | 6.4 | 22.5 | 0.00 | 0.00 | 0.00 | 80 | 1004.2 |
| 20260505100056 | 22 | 127 | 9.7 | 17.7 | 0.00 | 0.00 | 0.00 | 80 | 1004.3 |
| 20260505095552 | 22 | 259 | 8.0 | 17.7 | 0.00 | 0.00 | 0.00 | 80 | 1004.5 |
| 20260505095049 | 22 | 281 | 8.0 | 20.9 | 0.00 | 0.00 | 0.00 | 80 | 1004.3 |
| 20260505094545 | 22 | 176 | 8.0 | 20.9 | 0.00 | 0.00 | 0.00 | 80 | 1004.5 |
| 20260505094041 | 22 | 194 | 3.2 | 16.1 | 0.00 | 0.00 | 0.00 | 80 | 1004.5 |
| 20260505093538 | 22 | 229 | 6.4 | 11.3 | 0.00 | 0.00 | 0.00 | 80 | 1004.4 |
| 20260505093035 | 22 | 246 | 9.7 | 24.1 | 0.00 | 0.00 | 0.00 | 80 | 1004.4 |
| 20260505092533 | 22 | 114 | 8.0 | 17.7 | 0.00 | 0.00 | 0.00 | 80 | 1004.4 |
| 20260505092031 | 22 | 216 | 3.2 | 4.8 | 0.00 | 0.00 | 0.00 | 80 | 1004.5 |
| 20260505091527 | 22 | 194 | 3.2 | 16.1 | 0.00 | 0.00 | 0.00 | 80 | 1004.5 |
| 20260505091026 | 22 | 212 | 6.4 | 16.1 | 0.00 | 0.00 | 0.00 | 80 | 1004.7 |
| 20260505090524 | 21 | 259 | 9.7 | 20.9 | 0.00 | 0.00 | 0.00 | 80 | 1004.5 |
| 20260505090021 | 22 | 163 | 4.8 | 25.7 | 0.00 | 0.00 | 0.00 | 80 | 1004.5 |
| 20260505085519 | 21 | 168 | 9.7 | 24.1 | 0.00 | 0.00 | 0.00 | 80 | 1004.5 |
| 20260505085017 | 21 | 120 | 4.8 | 16.1 | 0.00 | 0.00 | 0.00 | 80 | 1004.4 |
| 20260505084515 | 21 | 88 | 9.7 | 17.7 | 0.00 | 0.00 | 0.00 | 80 | 1004.5 |
| 20260505084012 | 21 | 228 | 4.8 | 22.5 | 0.00 | 0.00 | 0.00 | 80 | 1004.5 |
| 20260505083509 | 21 | 178 | 14.5 | 17.7 | 0.00 | 0.00 | 0.00 | 81 | 1004.6 |
| 20260505083006 | 21 | 183 | 8.0 | 17.7 | 0.00 | 0.00 | 0.00 | 80 | 1004.6 |
| 20260505082502 | 21 | 206 | 14.5 | 22.5 | 0.00 | 0.00 | 0.00 | 80 | 1004.5 |
| 20260505081959 | 21 | 209 | 6.4 | 24.1 | 0.00 | 0.00 | 0.00 | 80 | 1004.7 |
| 20260505081455 | 21 | 162 | 6.4 | 14.5 | 0.00 | 0.00 | 0.00 | 80 | 1004.8 |